Time,TemperatureF,DewpointF,PressureIn,WindDirection,WindDirectionDegrees,WindSpeedMPH,WindSpeedGustMPH,Humidity,HourlyPrecipIn,Conditions,Clouds,dailyrainin,SoftwareType,DateUTC
2013-03-06 08:01:00,7.0,3.0,29.92,North,5,1.0,-999.0,84,-99.99,,,-99.99,,2013-03-06 15:01:00,
2013-03-06 08:11:00,7.0,3.0,29.92,North,5,1.0,-999.0,84,-99.99,,,-99.99,,2013-03-06 15:11:00,
2013-03-06 08:21:00,8.0,4.0,29.91,NNE,22,3.0,-999.0,83,-99.99,,,-99.99,,2013-03-06 15:21:00,
2013-03-06 08:32:00,9.0,5.0,29.91,NE,52,3.0,-999.0,83,-99.99,,,-99.99,,2013-03-06 15:32:00,
2013-03-06 08:41:00,9.0,5.0,29.91,NE,52,3.0,-999.0,83,-99.99,,,-99.99,,2013-03-06 15:41:00,
2013-03-06 08:52:00,10.0,6.0,29.90,NE,36,3.0,-999.0,83,-99.99,,,-99.99,,2013-03-06 15:52:00,
2013-03-06 09:01:00,12.0,8.0,29.90,NNE,18,1.0,-999.0,82,-99.99,,,-99.99,,2013-03-06 16:01:00,
2013-03-06 09:11:00,12.0,8.0,29.90,NNE,18,1.0,-999.0,82,-99.99,,,-99.99,,2013-03-06 16:11:00,
2013-03-06 09:21:00,13.0,8.0,29.89,NNE,18,1.0,-999.0,80,-99.99,,,-99.99,,2013-03-06 16:21:00,
2013-03-06 09:32:00,14.0,9.0,29.91,NNE,18,0.0,-999.0,79,-99.99,,,-99.99,,2013-03-06 16:32:00,
2013-03-06 09:41:00,14.0,9.0,29.91,NNE,18,0.0,-999.0,79,-99.99,,,-99.99,,2013-03-06 16:41:00,
2013-03-06 09:52:00,15.0,9.0,29.90,NNE,15,3.0,-999.0,77,-99.99,,,-99.99,,2013-03-06 16:52:00,
2013-03-06 10:01:00,16.0,9.0,29.89,NE,38,2.0,-999.0,75,-99.99,,,-99.99,,2013-03-06 17:01:00,
2013-03-06 10:11:00,16.0,9.0,29.89,NE,38,2.0,-999.0,75,-99.99,,,-99.99,,2013-03-06 17:11:00,
2013-03-06 10:21:00,17.0,10.0,29.88,NE,38,0.0,-999.0,75,-99.99,,,-99.99,,2013-03-06 17:21:00,
2013-03-06 10:31:00,18.0,11.0,29.88,NE,38,1.0,-999.0,72,-99.99,,,-99.99,,2013-03-06 17:31:00,
2013-03-06 10:41:00,18.0,11.0,29.88,NE,38,1.0,-999.0,72,-99.99,,,-99.99,,2013-03-06 17:41:00,
2013-03-06 10:52:00,20.0,11.0,29.87,NE,38,0.0,-999.0,68,-99.99,,,-99.99,,2013-03-06 17:52:00,
2013-03-06 11:01:00,21.0,11.0,29.86,NE,38,0.0,-999.0,65,-99.99,,,-99.99,,2013-03-06 18:01:00,
2013-03-06 11:28:00,23.0,13.0,29.85,NE,38,0.0,-999.0,64,-99.99,,,-99.99,,2013-03-06 18:28:00,
2013-03-06 11:41:00,22.0,13.0,29.86,NE,55,4.0,-999.0,67,-99.99,,,-99.99,,2013-03-06 18:41:00,
2013-03-06 11:52:00,24.0,14.0,29.85,East,82,2.0,-999.0,64,-99.99,,,-99.99,,2013-03-06 18:52:00,
2013-03-06 12:01:00,26.0,13.0,29.83,East,82,0.0,-999.0,58,-99.99,,,-99.99,,2013-03-06 19:01:00,
2013-03-06 12:11:00,26.0,13.0,29.83,East,82,0.0,-999.0,58,-99.99,,,-99.99,,2013-03-06 19:11:00,
2013-03-06 12:21:00,26.0,13.0,29.83,East,82,1.0,-999.0,58,-99.99,,,-99.99,,2013-03-06 19:21:00,
2013-03-06 12:31:00,27.0,14.0,29.82,East,82,0.0,-999.0,58,-99.99,,,-99.99,,2013-03-06 19:31:00,
2013-03-06 12:42:00,27.0,14.0,29.82,East,82,0.0,-999.0,58,-99.99,,,-99.99,,2013-03-06 19:42:00,
2013-03-06 12:52:00,28.0,15.0,29.81,SSE,153,1.0,-999.0,57,-99.99,,,-99.99,,2013-03-06 19:52:00,
2013-03-06 13:01:00,29.0,17.0,29.81,SSE,153,0.0,-999.0,61,-99.99,,,-99.99,,2013-03-06 20:01:00,
2013-03-06 13:11:00,29.0,17.0,29.81,SSE,153,0.0,-999.0,61,-99.99,,,-99.99,,2013-03-06 20:11:00,
2013-03-06 13:21:00,29.0,17.0,29.81,SE,142,2.0,-999.0,60,-99.99,,,-99.99,,2013-03-06 20:21:00,
2013-03-06 13:31:00,29.0,18.0,29.80,SSE,165,3.0,-999.0,64,-99.99,,,-99.99,,2013-03-06 20:31:00,
2013-03-06 13:41:00,29.0,18.0,29.80,SSE,165,3.0,-999.0,64,-99.99,,,-99.99,,2013-03-06 20:41:00,
2013-03-06 13:52:00,29.0,21.0,29.82,SE,134,7.0,-999.0,71,-99.99,,,-99.99,,2013-03-06 20:52:00,
2013-03-06 14:01:00,29.0,21.0,29.82,ESE,123,5.0,-999.0,73,-99.99,,,-99.99,,2013-03-06 21:01:00,
2013-03-06 14:11:00,29.0,21.0,29.82,ESE,123,5.0,-999.0,73,-99.99,,,-99.99,,2013-03-06 21:11:00,
2013-03-06 14:21:00,28.0,23.0,29.81,SE,146,3.0,-999.0,81,-99.99,,,-99.99,,2013-03-06 21:21:00,
2013-03-06 14:31:00,28.0,24.0,29.81,SE,146,2.0,-999.0,83,-99.99,,,-99.99,,2013-03-06 21:31:00,
2013-03-06 14:41:00,28.0,24.0,29.81,SE,146,2.0,-999.0,83,-99.99,,,-99.99,,2013-03-06 21:41:00,
2013-03-06 14:52:00,28.0,24.0,29.80,SE,146,0.0,-999.0,86,-99.99,,,-99.99,,2013-03-06 21:52:00,
2013-03-06 15:01:00,30.0,26.0,29.80,SE,146,0.0,-999.0,86,-99.99,,,-99.99,,2013-03-06 22:01:00,
2013-03-06 15:11:00,30.0,26.0,29.80,SE,146,0.0,-999.0,86,-99.99,,,-99.99,,2013-03-06 22:11:00,
2013-03-06 15:21:00,31.0,27.0,29.78,SE,146,0.0,-999.0,85,-99.99,,,-99.99,,2013-03-06 22:21:00,
2013-03-06 15:31:00,31.0,27.0,29.78,SE,146,1.0,-999.0,86,-99.99,,,-99.99,,2013-03-06 22:31:00,
2013-03-06 15:41:00,31.0,27.0,29.78,SE,146,1.0,-999.0,86,-99.99,,,-99.99,,2013-03-06 22:41:00,
2013-03-06 15:52:00,31.0,28.0,29.78,SSE,157,3.0,-999.0,89,-99.99,,,-99.99,,2013-03-06 22:52:00,
2013-03-06 16:01:00,31.0,28.0,29.77,SSE,157,3.0,-999.0,88,-99.99,,,-99.99,,2013-03-06 23:01:00,
2013-03-06 16:11:00,31.0,28.0,29.77,SSE,157,3.0,-999.0,88,-99.99,,,-99.99,,2013-03-06 23:11:00,
2013-03-06 16:21:00,32.0,29.0,29.79,SSE,159,3.0,-999.0,88,-99.99,,,-99.99,,2013-03-06 23:21:00,
2013-03-06 16:31:00,31.0,28.0,29.78,SSE,163,4.0,-999.0,88,-99.99,,,-99.99,,2013-03-06 23:31:00,
2013-03-06 16:41:00,31.0,28.0,29.78,SSE,163,4.0,-999.0,88,-99.99,,,-99.99,,2013-03-06 23:41:00,
2013-03-06 16:52:00,31.0,28.0,29.78,SSW,192,4.0,-999.0,87,-99.99,,,-99.99,,2013-03-06 23:52:00,
2013-03-06 17:01:00,31.0,27.0,29.77,SW,217,4.0,-999.0,86,-99.99,,,-99.99,,2013-03-07 00:01:00,
2013-03-06 17:11:00,31.0,27.0,29.77,SW,217,4.0,-999.0,86,-99.99,,,-99.99,,2013-03-07 00:11:00,
2013-03-06 17:21:00,32.0,29.0,29.77,SW,233,6.0,-999.0,87,-99.99,,,-99.99,,2013-03-07 00:21:00,
2013-03-06 17:31:00,32.0,29.0,29.76,SSW,200,3.0,-999.0,87,-99.99,,,-99.99,,2013-03-07 00:31:00,
2013-03-06 17:41:00,32.0,29.0,29.76,SSW,200,3.0,-999.0,87,-99.99,,,-99.99,,2013-03-07 00:41:00,
2013-03-06 17:52:00,31.0,28.0,29.75,ESE,114,2.0,-999.0,88,-99.99,,,-99.99,,2013-03-07 00:52:00,
2013-03-06 18:01:00,31.0,28.0,29.75,East,84,1.0,-999.0,87,-99.99,,,-99.99,,2013-03-07 01:01:00,
2013-03-06 18:11:00,31.0,28.0,29.75,East,84,1.0,-999.0,87,-99.99,,,-99.99,,2013-03-07 01:11:00,
2013-03-06 18:21:00,30.0,27.0,29.76,East,84,1.0,-999.0,88,-99.99,,,-99.99,,2013-03-07 01:21:00,
2013-03-06 18:31:00,30.0,27.0,29.77,West,273,3.0,-999.0,89,-99.99,,,-99.99,,2013-03-07 01:31:00,
2013-03-06 18:41:00,30.0,27.0,29.77,West,273,3.0,-999.0,89,-99.99,,,-99.99,,2013-03-07 01:41:00,
2013-03-06 18:52:00,33.0,30.0,29.77,West,272,10.0,-999.0,89,-99.99,,,-99.99,,2013-03-07 01:52:00,
2013-03-06 19:01:00,33.0,29.0,29.78,WSW,242,6.0,-999.0,86,-99.99,,,-99.99,,2013-03-07 02:01:00,
2013-03-06 19:11:00,33.0,29.0,29.78,WSW,242,6.0,-999.0,86,-99.99,,,-99.99,,2013-03-07 02:11:00,
2013-03-06 19:21:00,33.0,30.0,29.79,SSW,213,8.0,-999.0,87,-99.99,,,-99.99,,2013-03-07 02:21:00,
2013-03-06 19:31:00,33.0,29.0,29.79,NW,325,2.0,-999.0,86,-99.99,,,-99.99,,2013-03-07 02:31:00,
2013-03-06 19:41:00,33.0,29.0,29.79,NW,325,2.0,-999.0,86,-99.99,,,-99.99,,2013-03-07 02:41:00,
2013-03-06 19:52:00,33.0,29.0,29.79,NW,325,2.0,-999.0,86,-99.99,,,-99.99,,2013-03-07 02:52:00,
2013-03-06 20:01:00,31.0,28.0,29.80,South,176,3.0,-999.0,90,-99.99,,,-99.99,,2013-03-07 03:01:00,
2013-03-06 20:11:00,31.0,28.0,29.82,SSW,192,7.0,-999.0,89,-99.99,,,-99.99,,2013-03-07 03:11:00,
2013-03-06 20:21:00,31.0,28.0,29.82,SSW,192,7.0,-999.0,89,-99.99,,,-99.99,,2013-03-07 03:21:00,
2013-03-06 20:31:00,32.0,29.0,29.83,SE,140,4.0,-999.0,88,-99.99,,,-99.99,,2013-03-07 03:31:00,
2013-03-06 20:41:00,32.0,29.0,29.83,SE,140,4.0,-999.0,88,-99.99,,,-99.99,,2013-03-07 03:41:00,
2013-03-06 20:52:00,31.0,28.0,29.85,ESE,115,9.0,-999.0,90,-99.99,,,-99.99,,2013-03-07 03:52:00,
2013-03-06 21:01:00,30.0,28.0,29.85,SE,128,5.0,-999.0,91,-99.99,,,-99.99,,2013-03-07 04:01:00,
2013-03-06 21:11:00,30.0,28.0,29.85,SE,128,5.0,-999.0,91,-99.99,,,-99.99,,2013-03-07 04:11:00,
2013-03-06 21:21:00,30.0,28.0,29.86,SSE,152,3.0,-999.0,92,-99.99,,,-99.99,,2013-03-07 04:21:00,
2013-03-06 21:31:00,30.0,28.0,29.87,South,177,7.0,-999.0,92,-99.99,,,-99.99,,2013-03-07 04:31:00,
2013-03-06 21:41:00,30.0,28.0,29.87,South,177,7.0,-999.0,92,-99.99,,,-99.99,,2013-03-07 04:41:00,
2013-03-06 21:52:00,29.0,27.0,29.88,SSE,166,8.0,-999.0,91,-99.99,,,-99.99,,2013-03-07 04:52:00,
2013-03-06 22:01:00,29.0,27.0,29.88,SE,138,3.0,-999.0,92,-99.99,,,-99.99,,2013-03-07 05:01:00,
2013-03-06 22:12:00,29.0,27.0,29.88,SE,138,3.0,-999.0,92,-99.99,,,-99.99,,2013-03-07 05:12:00,
2013-03-06 22:22:00,29.0,26.0,29.88,SE,146,2.0,-999.0,89,-99.99,,,-99.99,,2013-03-07 05:22:00,
2013-03-06 22:31:00,28.0,25.0,29.88,SSW,198,5.0,-999.0,89,-99.99,,,-99.99,,2013-03-07 05:31:00,
2013-03-06 22:41:00,28.0,25.0,29.88,SSW,198,5.0,-999.0,89,-99.99,,,-99.99,,2013-03-07 05:41:00,
2013-03-06 22:52:00,28.0,25.0,29.92,SSE,152,7.0,-999.0,87,-99.99,,,-99.99,,2013-03-07 05:52:00,
2013-03-06 23:01:00,28.0,25.0,29.91,ESE,114,6.0,-999.0,89,-99.99,,,-99.99,,2013-03-07 06:01:00,
2013-03-06 23:11:00,28.0,25.0,29.91,ESE,114,6.0,-999.0,89,-99.99,,,-99.99,,2013-03-07 06:11:00,
2013-03-06 23:21:00,28.0,25.0,29.90,SE,134,7.0,-999.0,87,-99.99,,,-99.99,,2013-03-07 06:21:00,
2013-03-06 23:31:00,28.0,25.0,29.91,SE,136,7.0,-999.0,88,-99.99,,,-99.99,,2013-03-07 06:31:00,
2013-03-06 23:41:00,28.0,25.0,29.90,ESE,119,6.0,-999.0,87,-99.99,,,-99.99,,2013-03-07 06:41:00,
2013-03-06 23:52:00,28.0,25.0,29.90,ESE,119,6.0,-999.0,87,-99.99,,,-99.99,,2013-03-07 06:52:00,